Amis Wisdom II — 3FGI2 — position and weather

sailwx.info

Track history (hours):
 
Tides and Currents Weather Stations Pressure Air Temp Water Temp Dewpoint Dewpoint Depression Visibility Wind Speed Wind Dir Waves Ship Positions

Amis Wisdom II

Last reported at 2018-Apr-21 00:43 UTC. Time now 2018-Apr-21 11:50 UTC.
Position S 37°56' E 144°51'.

Length 200 m; draft 7.8 m.

Type: Cargo ship. MMSI: 357086000.

Date/timePositionNaut miles runAvg speedWind from/ knotsBaromVisibWave heightAir tempDewpointWater temp
2018-Apr-21 00:43S 37°56' E 144°51'23 0.5
2018-Apr-19 06:15S 38°19' E 144°48'17 9.2
2018-Apr-19 04:26S 38°25' E 144°28'  
2018-Apr-15 17:45S 33°13' E 152°32'414.9
2018-Apr-15 17:30S 33°09' E 152°34'915.1
2018-Apr-15 16:56S 33°01' E 152°38'615.2
2018-Apr-15 16:30S 32°56' E 152°41'815.4
2018-Apr-15 16:00S 32°49' E 152°45'815.4
2018-Apr-15 15:31S 32°42' E 152°49'815.2
2018-Apr-15 14:58S 32°34' E 152°52'22615.4
2018-Apr-15 00:16S 28°54' E 153°56'415.6
2018-Apr-15 00:00S 28°50' E 153°55'815.9
2018-Apr-14 23:29S 28°42' E 153°55'916.0
2018-Apr-14 22:56S 28°33' E 153°54'716.1
2018-Apr-14 22:30S 28°26' E 153°53'816.1
2018-Apr-14 22:00S 28°18' E 153°53'815.9
2018-Apr-14 21:30S 28°10' E 153°52'815.7
2018-Apr-14 21:00S 28°03' E 153°51'815.7
2018-Apr-14 20:30S 27°55' E 153°51'815.9
2018-Apr-14 20:00S 27°47' E 153°50'2115.4
2018-Apr-14 18:38S 27°26' E 153°48'214.7
2018-Apr-14 18:31S 27°24' E 153°48'2014.5
2018-Apr-14 17:06S 27°04' E 153°46'712.8
2018-Apr-14 16:33S 26°57' E 153°43'114.3
2018-Apr-14 16:30S 26°57' E 153°43'814.0
2018-Apr-14 15:54S 26°53' E 153°34'1213.7
2018-Apr-14 15:02S 26°48' E 153°22'013.8
2018-Apr-14 15:00S 26°47' E 153°22'813.4
2018-Apr-14 14:26S 26°43' E 153°15'2 4.2
2018-Apr-14 13:54S 26°43' E 153°12'410.5
2018-Apr-14 13:30S 26°47' E 153°12'510.7
2018-Apr-14 13:00S 26°52' E 153°09'612.8
2018-Apr-14 12:30S 26°57' E 153°13'612.0
2018-Apr-14 12:00S 27°03' E 153°16'611.2
2018-Apr-14 11:30S 27°07' E 153°20'611.4
2018-Apr-14 11:00S 27°13' E 153°20'611.3
2018-Apr-14 10:30S 27°16' E 153°16'510.3
2018-Apr-14 10:00S 27°20' E 153°12'4 8.4
2018-Apr-14 09:30S 27°24' E 153°09'2 4.9
2018-Apr-14 09:00S 27°26' E 153°07'0 0.2
2018-Apr-14 08:18S 27°26' E 153°07'0 0.0
2018-Apr-14 08:00S 27°26' E 153°07'0 0.0
2018-Apr-14 07:24S 27°26' E 153°07'0 0.0
2018-Apr-14 01:24S 27°26' E 153°07'0 0.0
2018-Apr-14 01:00S 27°26' E 153°07'0 0.0
2018-Apr-13 20:51S 27°26' E 153°07'0 0.0
2018-Apr-13 20:27S 27°26' E 153°07'0 0.0
2018-Apr-13 19:18S 27°26' E 153°07'0 0.0
2018-Apr-13 18:48S 27°26' E 153°07'0 0.0
2018-Apr-13 17:21S 27°26' E 153°07'0 0.0
2018-Apr-13 14:42S 27°26' E 153°07'0 0.0
2018-Apr-13 13:24S 27°26' E 153°07'0 0.0
2018-Apr-13 12:45S 27°26' E 153°07'0 0.0
2018-Apr-13 12:30S 27°26' E 153°07'0 0.0
2018-Apr-13 11:48S 27°26' E 153°07'0 0.0
2018-Apr-13 11:30S 27°26' E 153°07'0 0.0
2018-Apr-13 10:54S 27°26' E 153°07'0 0.0
2018-Apr-13 10:24S 27°26' E 153°07'0 0.0
2018-Apr-13 10:00S 27°26' E 153°07'0 0.0
2018-Apr-13 09:30S 27°26' E 153°07'0 0.0
2018-Apr-13 08:54S 27°26' E 153°07'0 0.0
2018-Apr-13 08:30S 27°26' E 153°07'0 0.0
2018-Apr-13 08:00S 27°26' E 153°07'0 0.0
2018-Apr-13 05:03S 27°26' E 153°07'0 0.0
2018-Apr-12 22:39S 27°26' E 153°07'0 0.0
2018-Apr-12 20:30S 27°26' E 153°07'0 0.0
2018-Apr-12 20:00S 27°26' E 153°07'0 0.0
2018-Apr-12 19:30S 27°26' E 153°07'0 0.0
2018-Apr-12 19:00S 27°26' E 153°07'0 0.0
2018-Apr-12 18:24S 27°26' E 153°07'0 0.0
2018-Apr-12 17:54S 27°26' E 153°07'0 0.0
2018-Apr-12 16:48S 27°26' E 153°07'0 0.0
2018-Apr-12 16:30S 27°26' E 153°07'0 0.0
2018-Apr-12 15:54S 27°26' E 153°07'0 0.0
2018-Apr-12 15:30S 27°26' E 153°07'0 0.0
2018-Apr-12 14:42S 27°26' E 153°07'0 0.0
2018-Apr-12 14:30S 27°26' E 153°07'0 0.0
2018-Apr-12 14:00S 27°26' E 153°07'0 0.0
2018-Apr-12 13:30S 27°26' E 153°07'0 0.0
2018-Apr-12 13:00S 27°26' E 153°07'0 0.0
2018-Apr-12 12:24S 27°26' E 153°07'0 0.0
2018-Apr-12 12:00S 27°26' E 153°07'0 0.0
2018-Apr-12 11:30S 27°26' E 153°07'0 0.0
2018-Apr-12 11:00S 27°26' E 153°07'0 0.0
2018-Apr-12 10:27S 27°26' E 153°07'0 0.0
2018-Apr-12 09:36S 27°26' E 153°07'0 0.0
2018-Apr-12 09:30S 27°26' E 153°07'0 0.0
2018-Apr-12 09:00S 27°26' E 153°07'0 0.0
2018-Apr-12 08:18S 27°26' E 153°07'0 0.0
2018-Apr-11 21:49S 27°26' E 153°07'0 0.0
2018-Apr-11 21:09S 27°26' E 153°07'0 0.2
2018-Apr-11 21:00S 27°26' E 153°07'6 5.4
2018-Apr-11 19:55S 27°21' E 153°11'7 9.5
2018-Apr-11 19:13S 27°16' E 153°16'21 9.7
2018-Apr-11 17:04S 26°56' E 153°12'211.3
2018-Apr-11 16:56S 26°54' E 153°11'  
Track history (hours):
 
Tides and Currents Weather Stations Pressure Air Temp Water Temp Dewpoint Dewpoint Depression Visibility Wind Speed Wind Dir Waves Ship Positions

Amis Wisdom II

Last reported at 2018-Apr-21 00:43 UTC. Time now 2018-Apr-21 11:50 UTC.
Position S 37°56' E 144°51'.

Length 200 m; draft 7.8 m.

Type: Cargo ship. MMSI: 357086000.

Date/timePositionNaut miles runAvg speedWind from/ knotsBaromVisibWave heightAir tempDewpointWater temp
2018-Apr-21 00:43S 37°56' E 144°51'23 0.5
2018-Apr-19 06:15S 38°19' E 144°48'17 9.2
2018-Apr-19 04:26S 38°25' E 144°28'  
2018-Apr-15 17:45S 33°13' E 152°32'414.9
2018-Apr-15 17:30S 33°09' E 152°34'915.1
2018-Apr-15 16:56S 33°01' E 152°38'615.2
2018-Apr-15 16:30S 32°56' E 152°41'815.4
2018-Apr-15 16:00S 32°49' E 152°45'815.4
2018-Apr-15 15:31S 32°42' E 152°49'815.2
2018-Apr-15 14:58S 32°34' E 152°52'22615.4
2018-Apr-15 00:16S 28°54' E 153°56'415.6
2018-Apr-15 00:00S 28°50' E 153°55'815.9
2018-Apr-14 23:29S 28°42' E 153°55'916.0
2018-Apr-14 22:56S 28°33' E 153°54'716.1
2018-Apr-14 22:30S 28°26' E 153°53'816.1
2018-Apr-14 22:00S 28°18' E 153°53'815.9
2018-Apr-14 21:30S 28°10' E 153°52'815.7
2018-Apr-14 21:00S 28°03' E 153°51'815.7
2018-Apr-14 20:30S 27°55' E 153°51'815.9
2018-Apr-14 20:00S 27°47' E 153°50'2115.4
2018-Apr-14 18:38S 27°26' E 153°48'214.7
2018-Apr-14 18:31S 27°24' E 153°48'2014.5
2018-Apr-14 17:06S 27°04' E 153°46'712.8
2018-Apr-14 16:33S 26°57' E 153°43'114.3
2018-Apr-14 16:30S 26°57' E 153°43'814.0
2018-Apr-14 15:54S 26°53' E 153°34'1213.7
2018-Apr-14 15:02S 26°48' E 153°22'013.8
2018-Apr-14 15:00S 26°47' E 153°22'813.4
2018-Apr-14 14:26S 26°43' E 153°15'2 4.2
2018-Apr-14 13:54S 26°43' E 153°12'410.5
2018-Apr-14 13:30S 26°47' E 153°12'510.7
2018-Apr-14 13:00S 26°52' E 153°09'612.8
2018-Apr-14 12:30S 26°57' E 153°13'612.0
2018-Apr-14 12:00S 27°03' E 153°16'611.2
2018-Apr-14 11:30S 27°07' E 153°20'611.4
2018-Apr-14 11:00S 27°13' E 153°20'611.3
2018-Apr-14 10:30S 27°16' E 153°16'510.3
2018-Apr-14 10:00S 27°20' E 153°12'4 8.4
2018-Apr-14 09:30S 27°24' E 153°09'2 4.9
2018-Apr-14 09:00S 27°26' E 153°07'0 0.2
2018-Apr-14 08:18S 27°26' E 153°07'0 0.0
2018-Apr-14 08:00S 27°26' E 153°07'0 0.0
2018-Apr-14 07:24S 27°26' E 153°07'0 0.0
2018-Apr-14 01:24S 27°26' E 153°07'0 0.0
2018-Apr-14 01:00S 27°26' E 153°07'0 0.0
2018-Apr-13 20:51S 27°26' E 153°07'0 0.0
2018-Apr-13 20:27S 27°26' E 153°07'0 0.0
2018-Apr-13 19:18S 27°26' E 153°07'0 0.0
2018-Apr-13 18:48S 27°26' E 153°07'0 0.0
2018-Apr-13 17:21S 27°26' E 153°07'0 0.0
2018-Apr-13 14:42S 27°26' E 153°07'0 0.0
2018-Apr-13 13:24S 27°26' E 153°07'0 0.0
2018-Apr-13 12:45S 27°26' E 153°07'0 0.0
2018-Apr-13 12:30S 27°26' E 153°07'0 0.0
2018-Apr-13 11:48S 27°26' E 153°07'0 0.0
2018-Apr-13 11:30S 27°26' E 153°07'0 0.0
2018-Apr-13 10:54S 27°26' E 153°07'0 0.0
2018-Apr-13 10:24S 27°26' E 153°07'0 0.0
2018-Apr-13 10:00S 27°26' E 153°07'0 0.0
2018-Apr-13 09:30S 27°26' E 153°07'0 0.0
2018-Apr-13 08:54S 27°26' E 153°07'0 0.0
2018-Apr-13 08:30S 27°26' E 153°07'0 0.0
2018-Apr-13 08:00S 27°26' E 153°07'0 0.0
2018-Apr-13 05:03S 27°26' E 153°07'0 0.0
2018-Apr-12 22:39S 27°26' E 153°07'0 0.0
2018-Apr-12 20:30S 27°26' E 153°07'0 0.0
2018-Apr-12 20:00S 27°26' E 153°07'0 0.0
2018-Apr-12 19:30S 27°26' E 153°07'0 0.0
2018-Apr-12 19:00S 27°26' E 153°07'0 0.0
2018-Apr-12 18:24S 27°26' E 153°07'0 0.0
2018-Apr-12 17:54S 27°26' E 153°07'0 0.0
2018-Apr-12 16:48S 27°26' E 153°07'0 0.0
2018-Apr-12 16:30S 27°26' E 153°07'0 0.0
2018-Apr-12 15:54S 27°26' E 153°07'0 0.0
2018-Apr-12 15:30S 27°26' E 153°07'0 0.0
2018-Apr-12 14:42S 27°26' E 153°07'0 0.0
2018-Apr-12 14:30S 27°26' E 153°07'0 0.0
2018-Apr-12 14:00S 27°26' E 153°07'0 0.0
2018-Apr-12 13:30S 27°26' E 153°07'0 0.0
2018-Apr-12 13:00S 27°26' E 153°07'0 0.0
2018-Apr-12 12:24S 27°26' E 153°07'0 0.0
2018-Apr-12 12:00S 27°26' E 153°07'0 0.0
2018-Apr-12 11:30S 27°26' E 153°07'0 0.0
2018-Apr-12 11:00S 27°26' E 153°07'0 0.0
2018-Apr-12 10:27S 27°26' E 153°07'0 0.0
2018-Apr-12 09:36S 27°26' E 153°07'0 0.0
2018-Apr-12 09:30S 27°26' E 153°07'0 0.0
2018-Apr-12 09:00S 27°26' E 153°07'0 0.0
2018-Apr-12 08:18S 27°26' E 153°07'0 0.0
2018-Apr-11 21:49S 27°26' E 153°07'0 0.0
2018-Apr-11 21:09S 27°26' E 153°07'0 0.2
2018-Apr-11 21:00S 27°26' E 153°07'6 5.4
2018-Apr-11 19:55S 27°21' E 153°11'7 9.5
2018-Apr-11 19:13S 27°16' E 153°16'21 9.7
2018-Apr-11 17:04S 26°56' E 153°12'211.3
2018-Apr-11 16:56S 26°54' E 153°11'  

Dump ship's entire track history